createdAt,value
2024-01-15T00:00:31.577Z,6.87
2024-01-15T00:10:33.936Z,7.42
2024-01-15T00:21:05.449Z,7.58
2024-01-15T00:31:14.768Z,8.42
2024-01-15T00:40:43.847Z,8.84
2024-01-15T00:50:44.411Z,9
2024-01-15T01:00:45.789Z,8.91
2024-01-15T01:10:45.746Z,8.87
2024-01-15T01:20:45.996Z,9.54
2024-01-15T01:30:46.070Z,10.69
2024-01-15T01:40:52.806Z,11.71
2024-01-15T01:50:52.307Z,12.04
2024-01-15T02:01:02.331Z,11.85
2024-01-15T02:11:20.004Z,12.21
2024-01-15T02:21:19.887Z,11.02
2024-01-15T02:31:29.954Z,10.77
2024-01-15T02:41:39.656Z,10.9
2024-01-15T02:51:49.713Z,10.8
2024-01-15T03:01:49.658Z,11.34
2024-01-15T03:11:59.487Z,11.23
2024-01-15T03:22:10.547Z,12.43
2024-01-15T03:32:10.407Z,10.44
2024-01-15T03:42:20.327Z,10.19
2024-01-15T03:52:30.378Z,11.94
2024-01-15T04:02:32.790Z,12.17
2024-01-15T04:12:35.001Z,12.42
2024-01-15T04:22:34.863Z,12.53
2024-01-15T04:32:44.828Z,11.59
2024-01-15T04:42:54.896Z,11.02
2024-01-15T04:52:54.822Z,11.59
2024-01-15T05:03:04.724Z,12.53
2024-01-15T05:13:14.554Z,10.96
2024-01-15T05:23:25.092Z,10.33
2024-01-15T05:33:25.155Z,12.78
2024-01-15T05:43:34.854Z,12.94
2024-01-15T05:53:44.753Z,11.98
2024-01-15T06:03:54.730Z,11.39
2024-01-15T06:14:08.622Z,12.08
2024-01-15T06:24:09.798Z,12.02
2024-01-15T06:34:10.259Z,12.14
2024-01-15T06:44:13.082Z,12.83
2024-01-15T06:54:23.910Z,12.35
2024-01-15T07:04:19.806Z,12.84
2024-01-15T07:14:22.520Z,12.78
2024-01-15T07:24:25.805Z,12.95
2024-01-15T07:34:28.891Z,12.99
2024-01-15T07:44:31.753Z,12.15
2024-01-15T07:54:31.025Z,11.3
2024-01-15T08:04:31.349Z,11.02
2024-01-15T08:14:31.128Z,13.87
2024-01-15T08:24:41.402Z,12.47
2024-01-15T08:34:40.568Z,13.43
2024-01-15T08:45:01.585Z,13.02
2024-01-15T08:54:52.685Z,12.92
2024-01-15T09:04:52.778Z,11.36
2024-01-15T09:14:59.064Z,9.86
2024-01-15T09:25:02.791Z,8.47
2024-01-15T09:35:02.523Z,8.36
2024-01-15T09:45:12.622Z,8.14
2024-01-15T09:55:22.719Z,8.58
2024-01-15T10:05:22.410Z,8.77
2024-01-15T10:15:32.369Z,8.19
2024-01-15T10:25:42.345Z,6.83
2024-01-15T10:35:45.534Z,11.39
2024-01-15T10:45:51.051Z,10.35
2024-01-15T10:55:56.336Z,9.23
2024-01-15T11:06:07.181Z,10.32
2024-01-15T11:16:13.180Z,9.64
2024-01-15T11:26:17.313Z,8.92
2024-01-15T11:36:22.961Z,7.58
2024-01-15T11:46:25.318Z,7.6
2024-01-15T12:06:29.382Z,5.13
2024-01-15T12:16:42.626Z,4.49
2024-01-15T12:26:34.156Z,4.99
2024-01-15T12:36:35.501Z,5.42
2024-01-15T12:46:36.646Z,6.29
2024-01-15T12:56:37.020Z,6.42
2024-01-15T13:06:37.034Z,6.49
2024-01-15T13:16:48.098Z,7.59
2024-01-15T13:26:50.490Z,7.94
2024-01-15T13:36:50.387Z,6.93
2024-01-15T13:46:51.405Z,6.61
2024-01-15T13:56:51.437Z,7.05
2024-01-15T14:06:57.015Z,5.39
2024-01-15T14:16:58.360Z,5.56
2024-01-15T14:27:00.939Z,5.56
2024-01-15T14:37:07.581Z,5.72
2024-01-15T14:47:11.371Z,5.76
2024-01-15T14:57:14.345Z,6.16
2024-01-15T15:17:16.288Z,2.42
2024-01-15T15:27:16.946Z,2.13
2024-01-15T15:37:19.492Z,2.1
2024-01-15T15:47:22.545Z,2.3
2024-01-15T15:57:26.036Z,2.4
2024-01-15T16:07:26.466Z,2.12
2024-01-15T16:23:01.059Z,2.45
2024-01-15T16:27:39.368Z,2.88
2024-01-15T16:37:39.494Z,2.93
2024-01-15T16:47:39.410Z,3.07
2024-01-15T16:57:48.778Z,3.3
2024-01-15T17:07:58.766Z,2.65
2024-01-15T17:18:38.941Z,2.62
2024-01-15T17:28:21.614Z,2.04
2024-01-15T17:38:22.305Z,1.78
2024-01-15T17:48:23.579Z,4.04
2024-01-15T17:58:23.637Z,2.56
2024-01-15T18:08:24.724Z,2.72
2024-01-15T18:18:26.002Z,2.53
2024-01-15T18:28:26.113Z,2.75
2024-01-15T18:38:33.848Z,2.31
2024-01-15T18:48:40.437Z,2.94
2024-01-15T18:58:45.849Z,3.38
2024-01-15T19:08:50.324Z,4.92
2024-01-15T19:18:51.764Z,5.54
2024-01-15T19:28:56.914Z,6.54
2024-01-15T19:39:28.728Z,7.17
2024-01-15T19:49:02.013Z,6.23
2024-01-15T20:09:10.295Z,9.38
2024-01-15T20:29:16.470Z,11.42
2024-01-15T20:39:19.323Z,14.07
2024-01-15T20:59:23.728Z,9.42
2024-01-15T21:09:28.923Z,9.32
2024-01-15T21:19:36.075Z,9.69
2024-01-15T21:29:47.211Z,10.39
2024-01-15T21:39:44.132Z,7.09
2024-01-15T21:49:46.940Z,7.2
2024-01-15T21:59:55.389Z,7.77
2024-01-15T22:09:59.884Z,8.62
2024-01-15T22:20:05.976Z,9.64
2024-01-15T22:30:09.438Z,10.26
2024-01-15T22:40:15.312Z,10.1
2024-01-15T22:50:18.584Z,9.76
2024-01-15T23:00:23.818Z,10.18
2024-01-15T23:10:26.773Z,9.67
2024-01-15T23:20:29.189Z,9.67
2024-01-15T23:30:27.973Z,10.97
2024-01-15T23:40:37.760Z,11.49
2024-01-15T23:50:47.726Z,11.23
